Time;durP1;ratioP1;P1;durP2;ratioP2;P2;SDS_P1;SDS_P2;PMS_P1;PMS_P2;Temp;Humidity;BMP_temperature;BMP_pressure;BME280_temperature;BME280_humidity;BME280_pressure;Samples;Min_cycle;Max_cycle;Signal;HPM_P1;HPM_P2
2021/11/01 00:00:45;;;;;;;2.00;1.37;;;17.10;99.90;;;;;;5067315;28;20522;-81
2021/11/01 00:03:15;;;;;;;1.83;1.50;;;17.10;99.90;;;;;;5056474;28;20450;-80
2021/11/01 00:05:44;;;;;;;1.20;1.10;;;16.90;99.90;;;;;;5066201;28;20831;-82
2021/11/01 00:08:14;;;;;;;0.90;0.90;;;16.70;99.90;;;;;;5059240;28;20468;-81
2021/11/01 00:10:43;;;;;;;2.13;1.00;;;16.50;99.90;;;;;;5061819;28;20520;-82
2021/11/01 00:13:12;;;;;;;1.20;0.77;;;16.40;99.90;;;;;;5067451;28;20961;-81
2021/11/01 00:15:41;;;;;;;1.10;1.00;;;16.40;99.90;;;;;;5083844;28;20457;-81
2021/11/01 00:18:10;;;;;;;0.83;0.83;;;16.30;1.00;;;;;;5066239;28;20464;-82
2021/11/01 00:20:38;;;;;;;0.87;0.87;;;16.40;1.00;;;;;;5068436;28;20470;-81
2021/11/01 00:23:06;;;;;;;0.90;0.90;;;16.30;1.00;;;;;;5068049;28;20472;-81
2021/11/01 00:25:36;;;;;;;0.70;0.60;;;16.50;1.00;;;;;;5068972;28;20892;-82
2021/11/01 00:28:05;;;;;;;1.00;0.90;;;16.50;1.00;;;;;;5069556;28;20467;-83
2021/11/01 00:30:33;;;;;;;0.80;0.63;;;16.50;1.00;;;;;;5057283;28;21186;-82
2021/11/01 00:33:01;;;;;;;0.73;0.73;;;16.50;1.00;;;;;;5068907;28;21033;-81
2021/11/01 00:35:30;;;;;;;0.70;0.70;;;16.60;1.00;;;;;;5068970;28;20923;-82
2021/11/01 00:37:58;;;;;;;0.60;0.60;;;16.70;1.00;;;;;;5058919;28;20476;-81
2021/11/01 00:40:26;;;;;;;1.53;0.80;;;16.50;24.50;;;;;;5066702;28;20457;-81
2021/11/01 00:42:56;;;;;;;0.67;0.67;;;16.40;99.90;;;;;;5068235;28;20437;-81
2021/11/01 00:45:24;;;;;;;0.70;0.70;;;16.30;99.90;;;;;;5061500;28;20464;-81
2021/11/01 00:47:53;;;;;;;0.70;0.70;;;16.40;99.90;;;;;;5069186;28;20595;-81
2021/11/01 00:50:21;;;;;;;1.63;0.80;;;16.30;99.90;;;;;;5061755;28;20863;-81
2021/11/01 00:52:49;;;;;;;1.47;0.83;;;16.40;99.90;;;;;;5066656;28;20447;-82
2021/11/01 00:55:23;;;;;;;2.70;0.80;;;16.50;99.90;;;;;;5068043;28;20826;-82
2021/11/01 00:57:52;;;;;;;0.70;0.70;;;16.50;99.90;;;;;;5063879;28;20596;-82
2021/11/01 01:00:22;;;;;;;0.60;0.60;;;16.60;99.90;;;;;;5067448;28;20440;-81
2021/11/01 01:02:51;;;;;;;0.77;0.77;;;16.70;99.90;;;;;;5068265;28;20456;-81
2021/11/01 01:05:19;;;;;;;1.47;0.73;;;16.80;99.90;;;;;;5068477;28;20868;-81
2021/11/01 01:07:48;;;;;;;0.70;0.70;;;16.90;99.90;;;;;;5060075;28;20471;-80
2021/11/01 01:10:16;;;;;;;0.97;0.70;;;16.90;99.90;;;;;;5087597;28;20494;-81
2021/11/01 01:12:45;;;;;;;1.53;1.43;;;17.00;99.90;;;;;;5063398;28;20448;-81
2021/11/01 01:15:19;;;;;;;1.10;0.80;;;16.80;99.90;;;;;;5060674;28;20479;-81
2021/11/01 01:17:49;;;;;;;0.70;0.70;;;16.80;99.90;;;;;;5066392;28;21026;-81
2021/11/01 01:20:20;;;;;;;0.80;0.70;;;16.60;1.00;;;;;;5068750;28;20450;-81
2021/11/01 01:22:49;;;;;;;0.70;0.70;;;16.70;1.00;;;;;;5060249;28;20460;-82
2021/11/01 01:25:38;;;;;;;1.00;0.60;;;16.70;1.00;;;;;;5065874;28;20447;-82
2021/11/01 01:28:07;;;;;;;0.70;0.60;;;16.70;1.00;;;;;;5065120;28;20481;-82
2021/11/01 01:30:36;;;;;;;0.60;0.60;;;16.70;1.00;;;;;;5061201;28;20495;-82
2021/11/01 01:33:07;;;;;;;0.60;0.60;;;16.50;99.90;;;;;;5060150;28;20446;-81
2021/11/01 01:35:36;;;;;;;0.60;0.60;;;16.50;99.90;;;;;;5067931;28;20443;-82
2021/11/01 01:38:05;;;;;;;0.53;0.50;;;16.50;1.00;;;;;;5101892;28;20467;-82
2021/11/01 01:40:34;;;;;;;0.60;0.60;;;16.60;1.00;;;;;;5064270;28;20854;-82
2021/11/01 01:43:04;;;;;;;0.60;0.60;;;16.60;1.00;;;;;;5059050;28;20464;-82
2021/11/01 01:45:32;;;;;;;0.60;0.60;;;16.70;99.90;;;;;;5061393;28;20460;-82
2021/11/01 01:48:01;;;;;;;0.87;0.87;;;16.80;99.90;;;;;;5065553;28;20476;-82
2021/11/01 01:50:32;;;;;;;1.00;0.90;;;16.90;99.90;;;;;;5061936;28;20985;-81
2021/11/01 01:53:00;;;;;;;0.53;0.53;;;17.10;1.00;;;;;;5066317;28;20458;-81
2021/11/01 01:55:30;;;;;;;0.87;0.70;;;17.20;1.00;;;;;;5078704;28;20457;-81
2021/11/01 01:57:59;;;;;;;0.73;0.73;;;17.40;99.90;;;;;;5053254;28;20988;-82
2021/11/01 02:00:42;;;;;;;0.83;0.83;;;17.50;99.90;;;;;;5062686;28;21203;-82
2021/11/01 02:03:12;;;;;;;0.90;0.90;;;17.50;99.90;;;;;;5062420;28;20483;-82
2021/11/01 02:05:48;;;;;;;1.03;0.80;;;17.40;99.90;;;;;;5064014;28;20463;-82
2021/11/01 02:08:18;;;;;;;0.70;0.70;;;17.40;1.00;;;;;;5054897;28;20497;-81
2021/11/01 02:10:57;;;;;;;0.77;0.77;;;17.40;1.00;;;;;;5063275;28;20477;-82
2021/11/01 02:13:30;;;;;;;0.90;0.80;;;17.40;1.00;;;;;;5064838;28;20464;-82
2021/11/01 02:16:00;;;;;;;0.60;0.60;;;17.30;1.00;;;;;;5064935;28;20465;-81
2021/11/01 02:18:33;;;;;;;0.70;0.60;;;17.20;1.00;;;;;;5065204;28;20482;-81
2021/11/01 02:21:31;;;;;;;0.60;0.60;;;17.20;1.00;;;;;;5059925;28;20445;-81
2021/11/01 02:24:05;;;;;;;0.93;0.60;;;17.20;1.00;;;;;;5066875;28;20518;-80
2021/11/01 02:26:38;;;;;;;0.90;0.63;;;17.10;1.00;;;;;;5060152;28;20993;-81
2021/11/01 02:29:07;;;;;;;0.70;0.60;;;17.00;1.00;;;;;;5068950;28;20472;-82
2021/11/01 02:31:35;;;;;;;0.53;0.50;;;16.90;1.00;;;;;;5061390;28;20461;-81
2021/11/01 02:34:04;;;;;;;1.10;0.40;;;16.90;1.00;;;;;;5059432;28;20808;-82
2021/11/01 02:36:33;;;;;;;1.23;0.50;;;16.90;1.00;;;;;;5068565;28;20459;-81
2021/11/01 02:39:02;;;;;;;0.90;0.40;;;16.90;1.00;;;;;;5065832;28;20474;-82
2021/11/01 02:41:33;;;;;;;2.43;0.57;;;16.90;1.00;;;;;;5061985;28;20453;-82
2021/11/01 02:44:06;;;;;;;0.50;0.50;;;16.90;1.00;;;;;;5053801;28;20457;-81
2021/11/01 02:46:36;;;;;;;0.50;0.50;;;16.90;1.00;;;;;;5068270;28;20460;-81
2021/11/01 02:49:05;;;;;;;0.40;0.40;;;16.90;1.00;;;;;;5050744;28;20468;-81
2021/11/01 02:51:34;;;;;;;1.87;0.60;;;16.80;1.00;;;;;;5054196;28;20465;-81
2021/11/01 02:54:03;;;;;;;0.53;0.40;;;16.70;1.00;;;;;;5067516;28;20479;-82
2021/11/01 02:56:32;;;;;;;0.50;0.50;;;16.70;1.00;;;;;;5056370;28;20881;-80
2021/11/01 02:59:02;;;;;;;0.77;0.47;;;16.80;1.00;;;;;;5066835;28;20472;-81
2021/11/01 03:01:30;;;;;;;0.50;0.50;;;16.70;1.00;;;;;;5069308;28;20525;-81
2021/11/01 03:03:58;;;;;;;1.50;0.53;;;16.70;1.00;;;;;;5057721;28;20450;-81
2021/11/01 03:06:29;;;;;;;0.40;0.40;;;16.70;1.00;;;;;;5063931;28;20460;-81
2021/11/01 03:08:58;;;;;;;1.30;0.70;;;16.70;1.00;;;;;;5065252;28;20469;-81
2021/11/01 03:11:28;;;;;;;0.50;0.50;;;16.60;1.00;;;;;;5061487;28;20559;-81
2021/11/01 03:13:59;;;;;;;2.63;0.50;;;16.60;1.00;;;;;;5065151;28;20450;-80
2021/11/01 03:16:31;;;;;;;0.80;0.50;;;16.50;1.00;;;;;;5059869;28;20455;-81
2021/11/01 03:19:07;;;;;;;0.50;0.40;;;16.50;1.00;;;;;;5063074;28;20525;-81
2021/11/01 03:21:41;;;;;;;0.50;0.40;;;16.50;1.00;;;;;;5064431;28;20895;-81
2021/11/01 03:24:13;;;;;;;0.87;0.40;;;16.50;1.00;;;;;;5060192;28;20485;-81
2021/11/01 03:26:43;;;;;;;0.63;0.53;;;16.50;1.00;;;;;;5063740;28;20509;-81
2021/11/01 03:29:12;;;;;;;0.73;0.50;;;16.50;1.00;;;;;;5056041;28;21178;-82
2021/11/01 03:31:43;;;;;;;0.60;0.60;;;16.50;1.00;;;;;;5065401;28;20466;-82
2021/11/01 03:34:11;;;;;;;1.33;0.47;;;16.40;1.00;;;;;;5059468;28;20481;-81
2021/11/01 03:36:40;;;;;;;1.60;0.63;;;16.40;1.00;;;;;;5056109;28;21001;-82
2021/11/01 03:39:12;;;;;;;0.90;0.60;;;16.40;1.00;;;;;;5066467;28;20951;-82
2021/11/01 03:41:42;;;;;;;3.07;0.50;;;16.40;1.00;;;;;;5067453;28;20443;-82
2021/11/01 03:44:16;;;;;;;0.40;0.40;;;16.30;1.00;;;;;;5066512;28;20454;-82
2021/11/01 03:46:53;;;;;;;0.50;0.40;;;16.30;1.00;;;;;;5089563;28;20851;-82
2021/11/01 03:49:23;;;;;;;0.40;0.40;;;16.30;1.00;;;;;;5059705;28;20968;-82
2021/11/01 03:52:04;;;;;;;0.70;0.40;;;16.30;1.00;;;;;;5067827;28;20475;-82
2021/11/01 03:54:33;;;;;;;1.90;0.50;;;16.20;1.00;;;;;;5057336;28;20453;-82
2021/11/01 03:57:01;;;;;;;2.70;0.50;;;16.20;1.00;;;;;;5068654;28;20451;-83
2021/11/01 03:59:30;;;;;;;0.40;0.40;;;16.10;1.00;;;;;;5065691;28;20493;-82
2021/11/01 04:02:01;;;;;;;0.40;0.40;;;16.10;1.00;;;;;;5062438;28;20484;-82
2021/11/01 04:04:29;;;;;;;0.70;0.50;;;16.00;1.00;;;;;;5068228;28;20481;-82
2021/11/01 04:06:59;;;;;;;0.70;0.60;;;16.10;1.00;;;;;;5063089;28;20926;-82
2021/11/01 04:09:28;;;;;;;1.13;0.40;;;16.00;1.00;;;;;;5067083;28;20532;-81
2021/11/01 04:11:56;;;;;;;1.90;0.50;;;16.00;1.00;;;;;;5061281;28;20911;-82
2021/11/01 04:14:29;;;;;;;0.60;0.50;;;16.10;1.00;;;;;;5068826;28;20578;-81
2021/11/01 04:16:59;;;;;;;0.63;0.40;;;16.00;1.00;;;;;;5065440;28;20461;-82
2021/11/01 04:19:43;;;;;;;2.00;0.47;;;16.00;1.00;;;;;;5063400;28;20480;-84
2021/11/01 04:22:11;;;;;;;0.50;0.50;;;16.00;1.00;;;;;;5071351;28;20871;-82
2021/11/01 04:24:40;;;;;;;0.50;0.50;;;15.90;1.00;;;;;;5060003;28;20452;-82
2021/11/01 04:27:08;;;;;;;0.90;0.40;;;15.70;1.00;;;;;;5069024;28;20452;-82
2021/11/01 04:29:36;;;;;;;2.10;0.50;;;15.60;1.00;;;;;;5066604;28;20583;-82
2021/11/01 04:32:18;;;;;;;0.50;0.50;;;15.70;1.00;;;;;;5070200;28;20467;-82
2021/11/01 04:34:52;;;;;;;1.30;0.93;;;15.70;1.00;;;;;;5062829;28;21366;-82
2021/11/01 04:37:21;;;;;;;1.63;1.37;;;15.70;1.00;;;;;;5070318;28;20459;-82
2021/11/01 04:53:52;;;;;;;1.40;0.60;;;15.00;81.10;;;;;;5067447;28;20457;-82
2021/11/01 04:56:25;;;;;;;0.70;0.40;;;15.00;99.90;;;;;;5049581;28;20458;-83
2021/11/01 04:58:54;;;;;;;1.50;0.50;;;15.10;99.90;;;;;;5066173;28;21112;-83
2021/11/01 05:01:25;;;;;;;0.53;0.50;;;15.10;99.90;;;;;;5065964;28;20835;-83
2021/11/01 05:03:57;;;;;;;0.60;0.50;;;15.00;99.90;;;;;;5057284;28;20446;-83
2021/11/01 05:06:26;;;;;;;0.63;0.50;;;14.90;99.90;;;;;;5057002;28;20439;-83
2021/11/01 05:08:58;;;;;;;0.87;0.50;;;14.80;99.90;;;;;;5064034;28;20477;-82
2021/11/01 05:11:31;;;;;;;0.63;0.63;;;14.80;99.90;;;;;;5067204;28;20474;-82
2021/11/01 05:14:01;;;;;;;0.43;0.40;;;15.00;99.90;;;;;;5054969;28;20458;-83
2021/11/01 05:16:44;;;;;;;0.60;0.60;;;15.10;1.00;;;;;;5062703;28;20977;-81
2021/11/01 05:19:20;;;;;;;0.40;0.40;;;15.00;57.60;;;;;;5067953;28;20470;-81
2021/11/01 05:21:58;;;;;;;0.33;0.33;;;15.20;1.00;;;;;;5064069;28;20860;-81
2021/11/01 05:24:32;;;;;;;1.40;0.40;;;15.20;1.00;;;;;;5065617;28;20471;-81
2021/11/01 05:29:48;;;;;;;0.40;0.40;;;15.10;1.00;;;;;;5063915;28;20477;-82
2021/11/01 05:32:19;;;;;;;1.47;0.50;;;14.90;1.00;;;;;;5056963;28;21345;-81
2021/11/01 05:34:47;;;;;;;0.77;0.50;;;14.70;62.20;;;;;;5065535;28;20465;-79
2021/11/01 05:37:17;;;;;;;0.87;0.60;;;14.80;99.90;;;;;;5061842;28;20458;-82
2021/11/01 05:39:47;;;;;;;0.30;0.30;;;14.80;99.90;;;;;;5065765;28;20944;-82
2021/11/01 05:42:16;;;;;;;0.40;0.40;;;14.90;99.90;;;;;;5067827;28;20477;-81
2021/11/01 05:44:44;;;;;;;0.83;0.40;;;14.80;1.00;;;;;;5056952;28;20457;-81
2021/11/01 05:47:12;;;;;;;0.67;0.40;;;14.80;8.40;;;;;;5059303;28;20457;-81
2021/11/01 05:49:41;;;;;;;0.40;0.40;;;14.70;99.90;;;;;;5061973;28;20485;-81
2021/11/01 05:52:16;;;;;;;0.70;0.40;;;14.70;83.80;;;;;;5055709;28;20482;-82
2021/11/01 05:54:46;;;;;;;0.77;0.40;;;14.80;1.00;;;;;;5053506;28;20543;-82
2021/11/01 05:57:18;;;;;;;0.50;0.40;;;14.70;1.00;;;;;;5064982;28;20970;-81
2021/11/01 06:02:49;;;;;;;0.30;0.30;;;14.40;1.00;;;;;;5062948;28;20522;-82
2021/11/01 06:05:27;;;;;;;0.50;0.40;;;14.20;1.00;;;;;;5062086;28;21446;-82
2021/11/01 06:08:19;;;;;;;0.63;0.40;;;14.30;1.00;;;;;;5059558;28;20581;-83
2021/11/01 06:13:24;;;;;;;1.50;0.50;;;14.50;1.00;;;;;;5061960;28;20480;-82
2021/11/01 06:13:40;;;;;;;0.40;0.40;;;14.30;1.00;;;;;;5068503;28;20456;-81
2021/11/01 06:16:09;;;;;;;0.60;0.50;;;14.40;1.00;;;;;;5058412;28;20483;-82
2021/11/01 06:18:38;;;;;;;0.40;0.40;;;14.60;1.00;;;;;;5060434;28;20484;-82
2021/11/01 06:21:08;;;;;;;1.07;0.40;;;14.60;1.00;;;;;;5064676;28;20954;-82
2021/11/01 06:23:38;;;;;;;0.70;0.70;;;14.60;1.00;;;;;;5056943;28;20458;-82
2021/11/01 06:26:08;;;;;;;1.00;0.40;;;14.70;1.00;;;;;;5058928;28;20524;-82
2021/11/01 06:28:41;;;;;;;0.40;0.40;;;14.70;99.90;;;;;;5065881;28;21001;-82
2021/11/01 06:31:12;;;;;;;0.40;0.40;;;14.40;99.90;;;;;;5060357;28;20555;-82
2021/11/01 06:33:59;;;;;;;0.60;0.50;;;14.40;1.00;;;;;;5065452;28;20461;-83
2021/11/01 06:39:42;;;;;;;4.77;0.50;;;14.30;99.90;;;;;;5064586;28;20473;-82
2021/11/01 06:42:23;;;;;;;0.40;0.40;;;14.20;1.00;;;;;;5061885;28;20466;-83
2021/11/01 06:45:20;;;;;;;0.40;0.40;;;14.20;1.00;;;;;;5063169;28;20529;-82
2021/11/01 06:50:45;;;;;;;1.23;0.50;;;14.20;1.00;;;;;;5056251;28;20456;-82
2021/11/01 06:53:39;;;;;;;0.43;0.40;;;14.10;99.90;;;;;;5062087;28;21015;-81
2021/11/01 07:14:08;;;;;;;0.70;0.40;;;14.00;1.00;;;;;;5061338;28;20537;-78
2021/11/01 07:16:07;;;;;;;0.77;0.50;;;14.60;99.90;;;;;;5056370;28;20443;-79
2021/11/01 07:18:38;;;;;;;1.23;0.50;;;14.30;99.90;;;;;;5062793;28;20835;-80
2021/11/01 07:21:28;;;;;;;1.27;0.60;;;14.00;99.90;;;;;;5066737;28;20456;-81
2021/11/01 07:24:15;;;;;;;0.40;0.40;;;13.90;99.90;;;;;;5067133;28;20491;-79
2021/11/01 08:28:09;;;;;;;0.60;0.60;;;13.20;99.90;;;;;;5061468;28;20474;-78
2021/11/01 08:42:20;;;;;;;0.50;0.47;;;13.10;1.00;;;;;;5060424;28;20459;-80
2021/11/01 08:50:41;;;;;;;1.00;0.60;;;13.20;99.90;;;;;;5034169;28;20469;-80
2021/11/01 09:01:43;;;;;;;0.70;0.63;;;13.10;1.00;;;;;;5063154;28;20468;-79
2021/11/01 09:04:18;;;;;;;1.33;0.70;;;13.00;99.90;;;;;;5057241;28;20839;-78
2021/11/01 09:07:08;;;;;;;0.70;0.70;;;13.00;99.90;;;;;;5065345;28;20533;-79
2021/11/01 09:10:03;;;;;;;1.57;0.80;;;13.00;99.90;;;;;;5064138;28;20496;-79
2021/11/01 09:21:01;;;;;;;0.50;0.50;;;13.10;99.90;;;;;;5063327;28;20471;-81
2021/11/01 09:26:20;;;;;;;0.60;0.60;;;13.10;99.90;;;;;;5055466;28;20522;-79
2021/11/01 09:28:56;;;;;;;0.60;0.60;;;13.00;99.90;;;;;;5059841;28;20839;-79
2021/11/01 09:37:03;;;;;;;1.67;0.60;;;13.00;99.90;;;;;;5065416;28;20542;-79
2021/11/01 09:42:19;;;;;;;0.87;0.50;;;12.80;1.00;;;;;;5038446;28;20480;-80
2021/11/01 09:44:51;;;;;;;2.00;0.50;;;12.70;1.00;;;;;;5060416;28;20874;-79
2021/11/01 09:47:19;;;;;;;0.90;0.70;;;12.90;1.00;;;;;;5068981;28;20485;-79
2021/11/01 09:49:48;;;;;;;0.50;0.50;;;13.00;99.90;;;;;;5064589;28;20528;-80
2021/11/01 09:52:16;;;;;;;0.53;0.53;;;13.20;99.90;;;;;;5064223;28;20881;-79
2021/11/01 09:54:46;;;;;;;0.67;0.43;;;13.30;99.90;;;;;;5056100;28;20460;-78
2021/11/01 09:57:21;;;;;;;0.90;0.90;;;13.40;99.90;;;;;;5061795;28;20455;-80
2021/11/01 09:59:51;;;;;;;0.70;0.50;;;13.20;99.90;;;;;;5061483;28;20468;-79
2021/11/01 10:02:21;;;;;;;1.13;0.47;;;13.30;99.90;;;;;;5063476;28;20448;-79
2021/11/01 10:04:53;;;;;;;1.00;0.60;;;13.20;1.00;;;;;;5051497;28;20509;-79
2021/11/01 10:07:25;;;;;;;0.60;0.50;;;13.10;10.90;;;;;;5060127;28;20461;-79
2021/11/01 10:09:56;;;;;;;0.87;0.50;;;13.20;82.20;;;;;;5054687;28;20460;-79
2021/11/01 10:12:31;;;;;;;0.40;0.40;;;13.20;1.00;;;;;;5051627;28;20557;-79
2021/11/01 10:17:57;;;;;;;0.90;0.50;;;13.30;1.00;;;;;;5060249;28;20478;-78
2021/11/01 10:20:27;;;;;;;0.40;0.40;;;13.00;1.00;;;;;;5061520;28;20462;-79
2021/11/01 10:22:55;;;;;;;0.60;0.57;;;12.70;99.40;;;;;;5060638;28;20453;-79
2021/11/01 10:25:24;;;;;;;1.13;0.50;;;12.60;99.90;;;;;;5066945;28;20455;-78
2021/11/01 10:27:56;;;;;;;0.40;0.40;;;12.60;99.90;;;;;;5058664;28;20527;-78
2021/11/01 10:30:28;;;;;;;0.70;0.50;;;12.70;99.90;;;;;;5052060;28;20447;-79
2021/11/01 10:32:59;;;;;;;0.50;0.50;;;12.70;99.90;;;;;;5067777;28;20537;-77
2021/11/01 10:35:30;;;;;;;0.70;0.70;;;12.90;99.90;;;;;;5063991;28;21346;-79
2021/11/01 10:38:25;;;;;;;1.30;0.57;;;12.70;99.90;;;;;;5063514;28;20500;-79
2021/11/01 10:41:01;;;;;;;0.60;0.60;;;12.80;99.90;;;;;;5062351;28;20473;-79
2021/11/01 11:11:49;;;;;;;0.60;0.60;;;12.50;99.90;;;;;;5073579;28;20470;-81
2021/11/01 11:14:26;;;;;;;0.90;0.63;;;12.40;99.90;;;;;;5077334;28;20485;-82
2021/11/01 11:17:20;;;;;;;0.87;0.60;;;12.60;67.20;;;;;;5098059;28;20475;-80
2021/11/01 11:26:18;;;;;;;0.67;0.67;;;12.60;1.00;;;;;;5069000;27;21162;-81
2021/11/01 11:29:22;;;;;;;0.87;0.43;;;12.80;1.00;;;;;;5069294;28;20474;-80
2021/11/01 11:32:10;;;;;;;0.67;0.67;;;13.00;99.90;;;;;;5073847;28;20455;-81
2021/11/01 11:38:00;;;;;;;0.63;0.60;;;13.10;99.90;;;;;;5072362;28;20489;-80
2021/11/01 11:43:47;;;;;;;0.60;0.53;;;13.20;99.90;;;;;;5063280;28;20519;-82
2021/11/01 11:49:25;;;;;;;0.63;0.60;;;13.40;17.40;;;;;;5061633;28;20494;-80
2021/11/01 11:51:55;;;;;;;0.70;0.70;;;12.90;99.90;;;;;;5065177;28;20504;-76
2021/11/01 11:54:31;;;;;;;0.77;0.63;;;13.00;99.90;;;;;;5062308;28;20450;-77
2021/11/01 11:57:03;;;;;;;0.70;0.70;;;13.30;99.90;;;;;;5056014;28;20479;-82
2021/11/01 11:59:35;;;;;;;0.77;0.77;;;13.20;99.90;;;;;;5059190;28;20224;-81
2021/11/01 12:02:09;;;;;;;1.70;0.90;;;13.30;99.90;;;;;;5061642;28;20463;-82
2021/11/01 12:04:42;;;;;;;1.00;0.80;;;13.50;99.90;;;;;;5060451;28;20474;-79
2021/11/01 12:07:14;;;;;;;0.70;0.70;;;13.50;1.00;;;;;;5063443;28;20459;-81
2021/11/01 12:09:54;;;;;;;0.60;0.60;;;13.50;22.00;;;;;;5063805;28;20538;-80
2021/11/01 12:12:39;;;;;;;1.50;0.67;;;13.50;1.00;;;;;;5062119;28;20456;-80
2021/11/01 12:17:55;;;;;;;0.50;0.50;;;13.30;99.90;;;;;;5075039;28;20480;-80
2021/11/01 12:20:25;;;;;;;1.40;0.50;;;13.10;99.90;;;;;;5063449;28;20455;-81
2021/11/01 12:23:02;;;;;;;1.57;0.70;;;13.20;23.30;;;;;;5058174;28;20455;-78
2021/11/01 12:25:39;;;;;;;0.70;0.70;;;13.20;1.00;;;;;;5066723;28;20982;-80
2021/11/01 12:28:17;;;;;;;0.67;0.67;;;13.30;41.70;;;;;;5066560;28;20514;-80
2021/11/01 12:30:54;;;;;;;0.83;0.60;;;13.50;1.00;;;;;;5065683;28;20466;-80
2021/11/01 12:33:25;;;;;;;0.70;0.70;;;13.60;1.00;;;;;;5065723;28;20460;-80
2021/11/01 12:35:56;;;;;;;1.17;0.70;;;13.60;1.00;;;;;;5051217;28;20511;-80
2021/11/01 12:38:39;;;;;;;0.60;0.60;;;13.50;1.00;;;;;;5054153;28;20483;-80
2021/11/01 12:41:28;;;;;;;0.77;0.50;;;13.50;1.00;;;;;;5040172;28;20967;-80
2021/11/01 12:58:02;;;;;;;1.03;0.70;;;13.00;1.00;;;;;;5044050;28;20476;-80
2021/11/01 13:00:40;;;;;;;0.80;0.60;;;13.30;1.00;;;;;;5042374;28;20448;-80
2021/11/01 13:03:16;;;;;;;0.70;0.70;;;13.40;1.00;;;;;;5053176;28;20447;-80
2021/11/01 13:05:53;;;;;;;0.80;0.80;;;13.60;1.00;;;;;;5039972;28;20476;-80
2021/11/01 13:08:27;;;;;;;1.77;0.73;;;13.50;1.00;;;;;;5044824;28;21058;-80
2021/11/01 13:11:00;;;;;;;0.80;0.80;;;13.50;1.00;;;;;;5042021;28;20511;-79
2021/11/01 13:13:57;;;;;;;0.57;0.57;;;13.30;1.00;;;;;;5052983;28;20833;-80
2021/11/01 13:19:15;;;;;;;3.63;0.60;;;13.30;1.00;;;;;;5051702;28;20552;-80
2021/11/01 13:21:49;;;;;;;1.80;0.70;;;12.90;1.00;;;;;;5044801;28;20457;-80
2021/11/01 13:24:20;;;;;;;0.80;0.60;;;12.80;1.00;;;;;;5050536;28;21000;-80
2021/11/01 13:27:10;;;;;;;0.60;0.60;;;12.90;1.00;;;;;;5043973;28;20466;-80
2021/11/01 13:35:36;;;;;;;1.47;0.60;;;12.80;1.00;;;;;;5050043;28;20825;-80
2021/11/01 13:38:06;;;;;;;0.80;0.80;;;13.10;1.00;;;;;;5045069;28;20480;-80
2021/11/01 13:40:37;;;;;;;0.67;0.60;;;12.60;1.00;;;;;;5044283;28;20463;-79
2021/11/01 13:43:05;;;;;;;0.60;0.60;;;12.60;1.00;;;;;;5038689;28;20457;-77
2021/11/01 13:45:34;;;;;;;0.50;0.50;;;12.50;1.00;;;;;;5042048;28;21307;-81
2021/11/01 13:48:26;;;;;;;0.60;0.60;;;12.60;1.00;;;;;;5043194;28;20467;-80
2021/11/01 13:51:05;;;;;;;0.57;0.57;;;12.40;1.00;;;;;;5046414;28;20475;-80
2021/11/01 13:53:38;;;;;;;1.43;0.50;;;12.60;1.00;;;;;;5049137;28;20451;-81
2021/11/01 13:56:23;;;;;;;0.97;0.50;;;12.90;1.00;;;;;;5046736;28;20463;-81
2021/11/01 13:58:58;;;;;;;0.60;0.50;;;13.10;1.00;;;;;;5046581;28;20533;-81
2021/11/01 14:01:42;;;;;;;0.80;0.70;;;13.30;99.90;;;;;;5043570;28;20817;-82
2021/11/01 14:15:26;;;;;;;0.60;0.60;;;13.20;99.90;;;;;;5045476;28;20447;-79
2021/11/01 14:20:53;;;;;;;0.60;0.60;;;13.10;99.90;;;;;;5044417;28;20978;-79
2021/11/01 14:29:05;;;;;;;1.30;0.77;;;13.10;99.90;;;;;;5047413;28;20479;-80
2021/11/01 14:34:39;;;;;;;0.70;0.70;;;13.40;99.90;;;;;;5041913;28;20490;-80
2021/11/01 15:21:58;;;;;;;1.23;0.90;;;13.10;1.00;;;;;;5049152;28;20456;-81
2021/11/01 15:27:25;;;;;;;2.87;1.07;;;13.30;1.00;;;;;;5040764;28;21025;-81
2021/11/01 15:33:16;;;;;;;0.97;0.70;;;13.60;99.90;;;;;;5046558;28;20447;-82
2021/11/01 16:17:42;;;;;;;0.90;0.80;;;13.90;99.90;;;;;;5045961;28;20516;-80
2021/11/01 16:20:12;;;;;;;1.90;0.63;;;13.80;99.90;;;;;;5045400;28;20979;-80
2021/11/01 16:22:41;;;;;;;0.70;0.70;;;13.70;1.00;;;;;;5038177;28;20439;-80
2021/11/01 16:25:10;;;;;;;1.10;0.80;;;13.60;99.90;;;;;;5047991;28;20875;-80
2021/11/01 16:27:45;;;;;;;5.80;1.13;;;13.40;99.90;;;;;;5043151;28;20475;-80
2021/11/01 16:30:17;;;;;;;0.90;0.80;;;13.30;1.00;;;;;;5040343;28;20894;-80
2021/11/01 16:32:51;;;;;;;2.20;0.87;;;13.40;1.00;;;;;;5058343;28;20481;-81
2021/11/01 16:35:25;;;;;;;2.57;1.10;;;13.30;1.00;;;;;;5050242;28;20518;-80
2021/11/01 16:38:03;;;;;;;0.70;0.60;;;13.40;1.00;;;;;;5048250;28;20471;-80
2021/11/01 16:40:33;;;;;;;1.30;0.73;;;13.40;1.00;;;;;;5040466;28;20440;-80
2021/11/01 16:43:03;;;;;;;1.00;0.90;;;13.50;1.00;;;;;;5043227;28;20441;-80
2021/11/01 16:45:35;;;;;;;1.70;1.50;;;13.50;1.00;;;;;;5044602;28;20449;-80
2021/11/01 16:48:04;;;;;;;1.83;1.60;;;13.60;1.00;;;;;;5046023;28;20488;-80
2021/11/01 16:50:34;;;;;;;1.67;1.10;;;13.50;1.00;;;;;;5050384;28;21150;-80
2021/11/01 16:53:02;;;;;;;1.67;1.23;;;13.40;1.00;;;;;;5050302;28;20439;-80
2021/11/01 16:55:34;;;;;;;1.40;1.20;;;13.30;1.00;;;;;;5050519;28;20469;-80
2021/11/01 16:58:13;;;;;;;1.10;1.00;;;13.40;1.00;;;;;;5042651;28;20461;-80
2021/11/01 17:00:46;;;;;;;1.73;1.10;;;13.50;1.00;;;;;;5036211;28;20459;-81
2021/11/01 17:03:30;;;;;;;4.20;1.10;;;13.60;99.90;;;;;;5037701;28;20468;-81
2021/11/01 17:06:06;;;;;;;1.13;1.03;;;13.70;99.90;;;;;;5044125;28;21129;-81
2021/11/01 17:22:44;;;;;;;1.50;1.20;;;12.90;1.00;;;;;;5051281;28;20456;-81
2021/11/01 17:25:18;;;;;;;1.47;0.93;;;12.90;1.00;;;;;;5040882;28;20495;-81
2021/11/01 17:36:37;;;;;;;3.53;1.20;;;12.90;1.00;;;;;;5043188;28;20453;-81
2021/11/01 18:38:51;;;;;;;0.70;0.63;;;12.80;99.90;;;;;;5041581;28;20883;-80
2021/11/01 18:41:20;;;;;;;0.60;0.60;;;12.70;99.90;;;;;;5046360;28;20449;-81
2021/11/01 18:52:13;;;;;;;1.67;0.93;;;12.30;99.90;;;;;;5046588;28;20459;-80
2021/11/01 18:54:42;;;;;;;1.17;0.90;;;12.50;99.90;;;;;;5041122;28;21857;-80
2021/11/01 18:57:12;;;;;;;0.60;0.60;;;12.60;99.90;;;;;;5050175;28;20996;-77
2021/11/01 18:59:41;;;;;;;0.70;0.70;;;12.20;99.90;;;;;;5049826;28;21064;-80
2021/11/01 19:05:11;;;;;;;0.97;0.90;;;12.40;99.90;;;;;;5044494;28;20455;-81
2021/11/01 19:07:47;;;;;;;0.70;0.63;;;12.50;99.90;;;;;;5056827;28;20477;-81
2021/11/01 20:04:22;;;;;;;1.60;1.40;;;12.30;99.90;;;;;;5045318;28;20942;-79
2021/11/01 20:12:59;;;;;;;1.33;1.23;;;12.50;99.90;;;;;;5051502;28;20492;-81
2021/11/01 21:25:48;;;;;;;1.30;1.20;;;11.90;99.90;;;;;;5042494;28;20973;-78
2021/11/01 21:28:17;;;;;;;1.20;1.10;;;12.00;99.90;;;;;;5041755;28;20820;-79
2021/11/01 21:30:46;;;;;;;0.83;0.83;;;11.90;99.90;;;;;;5042384;28;20783;-77
2021/11/01 21:33:17;;;;;;;1.60;1.27;;;11.90;99.90;;;;;;5038053;28;20495;-79
2021/11/01 21:35:48;;;;;;;1.43;1.33;;;11.90;99.90;;;;;;5039135;28;20199;-77
2021/11/01 21:38:17;;;;;;;1.63;1.07;;;11.80;99.90;;;;;;5041490;28;20991;-78
2021/11/01 21:40:45;;;;;;;2.07;1.20;;;11.80;99.90;;;;;;5045024;28;20476;-79
2021/11/01 21:43:14;;;;;;;2.17;1.10;;;11.70;99.90;;;;;;5038636;28;20767;-80
2021/11/01 21:45:45;;;;;;;1.80;1.20;;;11.60;1.00;;;;;;5041834;28;20453;-80
2021/11/01 21:48:14;;;;;;;1.20;1.10;;;11.40;1.00;;;;;;5046544;28;20565;-80
2021/11/01 21:50:45;;;;;;;1.03;0.90;;;11.50;1.00;;;;;;5038793;28;20459;-79
2021/11/01 21:53:15;;;;;;;1.53;0.90;;;11.40;1.00;;;;;;5043655;28;20959;-80
2021/11/01 21:55:44;;;;;;;0.83;0.83;;;11.50;1.00;;;;;;5048302;28;20483;-79
2021/11/01 21:58:22;;;;;;;1.13;0.90;;;11.60;1.00;;;;;;5044226;28;20499;-79
2021/11/01 22:01:24;;;;;;;1.73;1.33;;;11.80;1.00;;;;;;5046555;28;20487;-80
2021/11/01 22:09:59;;;;;;;2.00;1.07;;;11.90;99.90;;;;;;5046230;28;20495;-80
2021/11/01 22:18:06;;;;;;;1.03;0.93;;;12.00;99.90;;;;;;5044867;28;20472;-80
2021/11/01 22:20:38;;;;;;;1.63;1.00;;;12.00;99.90;;;;;;5033778;28;20461;-80
2021/11/01 22:23:11;;;;;;;1.50;1.20;;;11.90;99.90;;;;;;5043825;28;20467;-80
2021/11/01 22:25:44;;;;;;;1.10;0.73;;;11.80;99.90;;;;;;5042340;28;20464;-79
2021/11/01 22:34:12;;;;;;;1.10;0.90;;;11.50;99.90;;;;;;5030983;28;20456;-80
2021/11/01 22:39:29;;;;;;;1.20;0.90;;;11.90;99.90;;;;;;5021417;28;20530;-80
2021/11/01 22:45:12;;;;;;;2.47;2.27;;;12.00;99.90;;;;;;5006144;28;20487;-81
2021/11/01 22:56:23;;;;;;;0.60;0.60;;;12.00;99.90;;;;;;5043941;28;20529;-80
2021/11/01 22:58:52;;;;;;;0.90;0.90;;;11.90;99.90;;;;;;5035880;28;20472;-81
2021/11/01 23:01:22;;;;;;;1.17;0.70;;;12.00;99.90;;;;;;5040408;28;20985;-78
2021/11/01 23:04:05;;;;;;;1.00;1.00;;;12.00;99.90;;;;;;5043572;28;20567;-78
2021/11/01 23:06:55;;;;;;;1.03;0.90;;;12.10;99.90;;;;;;5044607;28;20452;-79
2021/11/01 23:31:39;;;;;;;1.43;1.17;;;11.70;99.90;;;;;;5044682;28;21194;-80
2021/11/01 23:34:11;;;;;;;0.90;0.90;;;11.60;99.90;;;;;;5048560;28;20469;-80
2021/11/01 23:36:41;;;;;;;1.27;0.97;;;11.50;99.90;;;;;;5050582;28;20451;-80
2021/11/01 23:39:14;;;;;;;0.83;0.83;;;11.60;1.00;;;;;;5049558;28;20463;-80